sensor_id;sensor_type;location;lat;lon;timestamp;P1;durP1;ratioP1;P2;durP2;ratioP2
60354;SDS011;46198;51.464;-0.066;2024-03-08T00:00:21;63.77;;;28.43;;
60354;SDS011;46198;51.464;-0.066;2024-03-08T00:02:50;67.10;;;28.80;;
60354;SDS011;46198;51.464;-0.066;2024-03-08T00:05:18;61.63;;;27.20;;
60354;SDS011;46198;51.464;-0.066;2024-03-08T00:07:46;53.50;;;27.17;;
60354;SDS011;46198;51.464;-0.066;2024-03-08T00:10:16;62.97;;;27.60;;
60354;SDS011;46198;51.464;-0.066;2024-03-08T00:12:44;66.80;;;28.63;;
60354;SDS011;46198;51.464;-0.066;2024-03-08T00:15:14;66.10;;;28.67;;
60354;SDS011;46198;51.464;-0.066;2024-03-08T00:17:45;60.17;;;27.83;;
60354;SDS011;46198;51.464;-0.066;2024-03-08T00:20:15;61.43;;;29.30;;
60354;SDS011;46198;51.464;-0.066;2024-03-08T00:22:45;60.30;;;28.13;;
60354;SDS011;46198;51.464;-0.066;2024-03-08T00:25:13;65.33;;;26.83;;
60354;SDS011;46198;51.464;-0.066;2024-03-08T00:27:44;63.57;;;28.40;;
60354;SDS011;46198;51.464;-0.066;2024-03-08T00:30:12;67.83;;;28.30;;
60354;SDS011;46198;51.464;-0.066;2024-03-08T00:32:41;61.37;;;29.10;;
60354;SDS011;46198;51.464;-0.066;2024-03-08T00:35:10;61.97;;;27.73;;
60354;SDS011;46198;51.464;-0.066;2024-03-08T00:37:39;60.93;;;27.97;;
60354;SDS011;46198;51.464;-0.066;2024-03-08T00:40:09;66.50;;;29.10;;
60354;SDS011;46198;51.464;-0.066;2024-03-08T00:42:38;59.97;;;28.43;;
60354;SDS011;46198;51.464;-0.066;2024-03-08T00:45:08;65.10;;;29.13;;
60354;SDS011;46198;51.464;-0.066;2024-03-08T00:47:38;62.73;;;28.20;;
60354;SDS011;46198;51.464;-0.066;2024-03-08T00:50:07;65.97;;;28.73;;
60354;SDS011;46198;51.464;-0.066;2024-03-08T00:52:35;63.17;;;27.97;;
60354;SDS011;46198;51.464;-0.066;2024-03-08T00:55:04;63.33;;;29.97;;
60354;SDS011;46198;51.464;-0.066;2024-03-08T00:57:32;65.57;;;29.47;;
60354;SDS011;46198;51.464;-0.066;2024-03-08T01:00:02;64.23;;;29.83;;
60354;SDS011;46198;51.464;-0.066;2024-03-08T01:02:33;66.15;;;29.63;;
60354;SDS011;46198;51.464;-0.066;2024-03-08T01:05:02;70.37;;;31.23;;
60354;SDS011;46198;51.464;-0.066;2024-03-08T01:07:33;68.47;;;30.90;;
60354;SDS011;46198;51.464;-0.066;2024-03-08T01:10:02;64.53;;;28.43;;
60354;SDS011;46198;51.464;-0.066;2024-03-08T01:12:30;66.60;;;29.83;;
60354;SDS011;46198;51.464;-0.066;2024-03-08T01:14:58;67.30;;;28.93;;
60354;SDS011;46198;51.464;-0.066;2024-03-08T01:17:27;71.70;;;30.43;;
60354;SDS011;46198;51.464;-0.066;2024-03-08T01:19:57;70.30;;;31.30;;
60354;SDS011;46198;51.464;-0.066;2024-03-08T01:22:27;68.00;;;29.43;;
60354;SDS011;46198;51.464;-0.066;2024-03-08T01:24:57;66.33;;;31.30;;
60354;SDS011;46198;51.464;-0.066;2024-03-08T01:27:27;67.32;;;28.77;;
60354;SDS011;46198;51.464;-0.066;2024-03-08T01:29:55;67.57;;;28.50;;
60354;SDS011;46198;51.464;-0.066;2024-03-08T01:32:24;72.37;;;30.73;;
60354;SDS011;46198;51.464;-0.066;2024-03-08T01:34:53;68.90;;;28.90;;
60354;SDS011;46198;51.464;-0.066;2024-03-08T01:37:22;68.53;;;29.57;;
60354;SDS011;46198;51.464;-0.066;2024-03-08T01:39:51;66.30;;;28.20;;
60354;SDS011;46198;51.464;-0.066;2024-03-08T01:42:19;68.73;;;29.50;;
60354;SDS011;46198;51.464;-0.066;2024-03-08T01:44:48;67.40;;;29.50;;
60354;SDS011;46198;51.464;-0.066;2024-03-08T01:47:18;63.80;;;28.03;;
60354;SDS011;46198;51.464;-0.066;2024-03-08T01:49:46;60.40;;;26.60;;
60354;SDS011;46198;51.464;-0.066;2024-03-08T01:52:15;59.70;;;26.87;;
60354;SDS011;46198;51.464;-0.066;2024-03-08T01:54:47;64.90;;;28.77;;
60354;SDS011;46198;51.464;-0.066;2024-03-08T01:57:15;59.43;;;27.60;;
60354;SDS011;46198;51.464;-0.066;2024-03-08T01:59:43;61.53;;;28.73;;
60354;SDS011;46198;51.464;-0.066;2024-03-08T02:02:12;58.93;;;25.70;;
60354;SDS011;46198;51.464;-0.066;2024-03-08T02:04:46;62.87;;;26.67;;
60354;SDS011;46198;51.464;-0.066;2024-03-08T02:07:15;58.33;;;25.60;;
60354;SDS011;46198;51.464;-0.066;2024-03-08T02:09:43;67.73;;;27.23;;
60354;SDS011;46198;51.464;-0.066;2024-03-08T02:12:13;61.53;;;28.00;;
60354;SDS011;46198;51.464;-0.066;2024-03-08T02:14:41;65.20;;;28.70;;
60354;SDS011;46198;51.464;-0.066;2024-03-08T02:17:10;52.60;;;24.10;;
60354;SDS011;46198;51.464;-0.066;2024-03-08T02:19:39;59.57;;;26.60;;
60354;SDS011;46198;51.464;-0.066;2024-03-08T02:22:09;60.27;;;26.30;;
60354;SDS011;46198;51.464;-0.066;2024-03-08T02:24:37;59.60;;;27.13;;
60354;SDS011;46198;51.464;-0.066;2024-03-08T02:27:06;55.53;;;25.47;;
60354;SDS011;46198;51.464;-0.066;2024-03-08T02:29:34;62.23;;;26.10;;
60354;SDS011;46198;51.464;-0.066;2024-03-08T02:32:03;55.40;;;24.60;;
60354;SDS011;46198;51.464;-0.066;2024-03-08T02:34:31;58.23;;;24.43;;
60354;SDS011;46198;51.464;-0.066;2024-03-08T02:36:59;52.77;;;25.63;;
60354;SDS011;46198;51.464;-0.066;2024-03-08T02:39:29;61.77;;;25.70;;
60354;SDS011;46198;51.464;-0.066;2024-03-08T02:41:58;61.75;;;24.58;;
60354;SDS011;46198;51.464;-0.066;2024-03-08T02:44:27;57.30;;;25.67;;
60354;SDS011;46198;51.464;-0.066;2024-03-08T02:46:55;50.80;;;23.67;;
60354;SDS011;46198;51.464;-0.066;2024-03-08T02:49:23;52.37;;;24.00;;
60354;SDS011;46198;51.464;-0.066;2024-03-08T02:51:51;55.37;;;24.37;;
60354;SDS011;46198;51.464;-0.066;2024-03-08T02:54:20;57.67;;;25.67;;
60354;SDS011;46198;51.464;-0.066;2024-03-08T02:56:49;55.10;;;25.60;;
60354;SDS011;46198;51.464;-0.066;2024-03-08T02:59:18;55.40;;;24.23;;
60354;SDS011;46198;51.464;-0.066;2024-03-08T03:01:46;57.93;;;24.50;;
60354;SDS011;46198;51.464;-0.066;2024-03-08T03:04:14;57.50;;;23.47;;
60354;SDS011;46198;51.464;-0.066;2024-03-08T03:06:42;56.03;;;24.53;;
60354;SDS011;46198;51.464;-0.066;2024-03-08T03:09:10;57.80;;;24.30;;
60354;SDS011;46198;51.464;-0.066;2024-03-08T03:11:38;54.33;;;24.80;;
60354;SDS011;46198;51.464;-0.066;2024-03-08T03:14:08;55.33;;;24.13;;
60354;SDS011;46198;51.464;-0.066;2024-03-08T03:16:36;55.60;;;25.23;;
60354;SDS011;46198;51.464;-0.066;2024-03-08T03:19:05;51.83;;;24.13;;
60354;SDS011;46198;51.464;-0.066;2024-03-08T03:21:33;58.30;;;25.07;;
60354;SDS011;46198;51.464;-0.066;2024-03-08T03:24:05;57.67;;;23.53;;
60354;SDS011;46198;51.464;-0.066;2024-03-08T03:26:37;53.40;;;23.00;;
60354;SDS011;46198;51.464;-0.066;2024-03-08T03:29:09;51.90;;;23.13;;
60354;SDS011;46198;51.464;-0.066;2024-03-08T03:31:37;51.40;;;22.53;;
60354;SDS011;46198;51.464;-0.066;2024-03-08T03:34:07;51.97;;;23.57;;
60354;SDS011;46198;51.464;-0.066;2024-03-08T03:36:35;50.33;;;22.80;;
60354;SDS011;46198;51.464;-0.066;2024-03-08T03:39:05;53.23;;;23.57;;
60354;SDS011;46198;51.464;-0.066;2024-03-08T03:41:38;54.70;;;23.53;;
60354;SDS011;46198;51.464;-0.066;2024-03-08T03:44:06;46.17;;;22.43;;
60354;SDS011;46198;51.464;-0.066;2024-03-08T03:46:38;50.77;;;23.13;;
60354;SDS011;46198;51.464;-0.066;2024-03-08T03:49:11;54.27;;;23.30;;
60354;SDS011;46198;51.464;-0.066;2024-03-08T03:51:39;50.67;;;22.23;;
60354;SDS011;46198;51.464;-0.066;2024-03-08T03:54:07;49.40;;;22.63;;
60354;SDS011;46198;51.464;-0.066;2024-03-08T03:56:35;50.47;;;21.67;;
60354;SDS011;46198;51.464;-0.066;2024-03-08T03:59:04;53.17;;;22.57;;
60354;SDS011;46198;51.464;-0.066;2024-03-08T04:01:33;51.10;;;22.60;;
60354;SDS011;46198;51.464;-0.066;2024-03-08T04:04:06;57.40;;;22.67;;
60354;SDS011;46198;51.464;-0.066;2024-03-08T04:06:34;52.03;;;22.37;;
60354;SDS011;46198;51.464;-0.066;2024-03-08T04:09:02;54.60;;;22.70;;
60354;SDS011;46198;51.464;-0.066;2024-03-08T04:11:31;57.07;;;21.83;;
60354;SDS011;46198;51.464;-0.066;2024-03-08T04:14:00;45.80;;;22.27;;
60354;SDS011;46198;51.464;-0.066;2024-03-08T04:16:28;48.73;;;21.40;;
60354;SDS011;46198;51.464;-0.066;2024-03-08T04:18:56;45.33;;;21.70;;
60354;SDS011;46198;51.464;-0.066;2024-03-08T04:21:26;48.50;;;21.87;;
60354;SDS011;46198;51.464;-0.066;2024-03-08T04:23:54;47.63;;;22.03;;
60354;SDS011;46198;51.464;-0.066;2024-03-08T04:26:23;51.77;;;22.90;;
60354;SDS011;46198;51.464;-0.066;2024-03-08T04:28:52;52.07;;;22.83;;
60354;SDS011;46198;51.464;-0.066;2024-03-08T04:31:21;51.57;;;22.87;;
60354;SDS011;46198;51.464;-0.066;2024-03-08T04:33:49;50.67;;;22.03;;
60354;SDS011;46198;51.464;-0.066;2024-03-08T04:36:18;57.13;;;23.07;;
60354;SDS011;46198;51.464;-0.066;2024-03-08T04:38:47;53.00;;;24.30;;
60354;SDS011;46198;51.464;-0.066;2024-03-08T04:41:16;50.20;;;22.00;;
60354;SDS011;46198;51.464;-0.066;2024-03-08T04:43:45;51.53;;;23.80;;
60354;SDS011;46198;51.464;-0.066;2024-03-08T04:46:13;50.67;;;22.90;;
60354;SDS011;46198;51.464;-0.066;2024-03-08T04:48:41;48.60;;;22.50;;
60354;SDS011;46198;51.464;-0.066;2024-03-08T04:51:10;53.03;;;22.23;;
60354;SDS011;46198;51.464;-0.066;2024-03-08T04:53:38;43.60;;;22.30;;
60354;SDS011;46198;51.464;-0.066;2024-03-08T04:56:08;52.47;;;22.30;;
60354;SDS011;46198;51.464;-0.066;2024-03-08T04:58:38;45.75;;;21.73;;
60354;SDS011;46198;51.464;-0.066;2024-03-08T05:01:06;56.30;;;22.97;;
60354;SDS011;46198;51.464;-0.066;2024-03-08T05:03:39;52.90;;;21.53;;
60354;SDS011;46198;51.464;-0.066;2024-03-08T05:06:08;51.80;;;23.63;;
60354;SDS011;46198;51.464;-0.066;2024-03-08T05:08:36;50.37;;;23.23;;
60354;SDS011;46198;51.464;-0.066;2024-03-08T05:11:04;53.03;;;23.50;;
60354;SDS011;46198;51.464;-0.066;2024-03-08T05:13:35;54.70;;;23.83;;
60354;SDS011;46198;51.464;-0.066;2024-03-08T05:16:04;52.33;;;22.23;;
60354;SDS011;46198;51.464;-0.066;2024-03-08T05:18:34;54.30;;;22.53;;
60354;SDS011;46198;51.464;-0.066;2024-03-08T05:21:03;54.30;;;23.23;;
60354;SDS011;46198;51.464;-0.066;2024-03-08T05:23:31;52.33;;;23.53;;
60354;SDS011;46198;51.464;-0.066;2024-03-08T05:26:00;52.90;;;23.40;;
60354;SDS011;46198;51.464;-0.066;2024-03-08T05:28:30;51.00;;;23.50;;
60354;SDS011;46198;51.464;-0.066;2024-03-08T05:31:00;54.27;;;24.97;;
60354;SDS011;46198;51.464;-0.066;2024-03-08T05:33:28;52.10;;;22.07;;
60354;SDS011;46198;51.464;-0.066;2024-03-08T05:35:56;56.93;;;23.83;;
60354;SDS011;46198;51.464;-0.066;2024-03-08T05:38:26;57.33;;;24.20;;
60354;SDS011;46198;51.464;-0.066;2024-03-08T05:40:54;56.63;;;24.97;;
60354;SDS011;46198;51.464;-0.066;2024-03-08T05:43:22;58.17;;;24.90;;
60354;SDS011;46198;51.464;-0.066;2024-03-08T05:45:51;56.03;;;24.83;;
60354;SDS011;46198;51.464;-0.066;2024-03-08T05:48:21;54.60;;;23.53;;
60354;SDS011;46198;51.464;-0.066;2024-03-08T05:50:49;60.83;;;25.07;;
60354;SDS011;46198;51.464;-0.066;2024-03-08T05:53:17;52.23;;;23.73;;
60354;SDS011;46198;51.464;-0.066;2024-03-08T05:55:46;63.27;;;26.03;;
60354;SDS011;46198;51.464;-0.066;2024-03-08T05:58:16;61.43;;;25.70;;
60354;SDS011;46198;51.464;-0.066;2024-03-08T06:00:45;67.78;;;27.92;;
60354;SDS011;46198;51.464;-0.066;2024-03-08T06:03:18;60.70;;;26.03;;
60354;SDS011;46198;51.464;-0.066;2024-03-08T06:05:49;55.50;;;23.13;;
60354;SDS011;46198;51.464;-0.066;2024-03-08T06:08:18;63.70;;;26.40;;
60354;SDS011;46198;51.464;-0.066;2024-03-08T06:10:46;55.50;;;25.37;;
60354;SDS011;46198;51.464;-0.066;2024-03-08T06:13:19;60.73;;;26.23;;
60354;SDS011;46198;51.464;-0.066;2024-03-08T06:15:48;57.37;;;25.80;;
60354;SDS011;46198;51.464;-0.066;2024-03-08T06:18:17;64.60;;;24.70;;
60354;SDS011;46198;51.464;-0.066;2024-03-08T06:24:30;62.03;;;26.10;;
60354;SDS011;46198;51.464;-0.066;2024-03-08T06:26:59;58.90;;;25.03;;
60354;SDS011;46198;51.464;-0.066;2024-03-08T06:29:27;58.97;;;25.30;;
60354;SDS011;46198;51.464;-0.066;2024-03-08T06:31:55;60.80;;;25.03;;
60354;SDS011;46198;51.464;-0.066;2024-03-08T06:34:24;63.10;;;26.33;;
60354;SDS011;46198;51.464;-0.066;2024-03-08T06:36:52;58.97;;;25.00;;
60354;SDS011;46198;51.464;-0.066;2024-03-08T06:39:27;62.93;;;25.20;;
60354;SDS011;46198;51.464;-0.066;2024-03-08T06:41:59;69.45;;;27.73;;
60354;SDS011;46198;51.464;-0.066;2024-03-08T06:44:28;67.80;;;28.17;;
60354;SDS011;46198;51.464;-0.066;2024-03-08T06:46:56;63.27;;;26.13;;
60354;SDS011;46198;51.464;-0.066;2024-03-08T06:49:27;71.18;;;27.40;;
60354;SDS011;46198;51.464;-0.066;2024-03-08T06:51:56;61.97;;;25.63;;
60354;SDS011;46198;51.464;-0.066;2024-03-08T06:54:25;58.13;;;26.73;;
60354;SDS011;46198;51.464;-0.066;2024-03-08T06:56:53;69.37;;;26.63;;
60354;SDS011;46198;51.464;-0.066;2024-03-08T06:59:23;69.13;;;27.43;;
60354;SDS011;46198;51.464;-0.066;2024-03-08T07:01:51;57.53;;;25.80;;
60354;SDS011;46198;51.464;-0.066;2024-03-08T07:04:21;59.67;;;27.23;;
60354;SDS011;46198;51.464;-0.066;2024-03-08T07:06:53;62.80;;;26.83;;
60354;SDS011;46198;51.464;-0.066;2024-03-08T07:09:21;61.93;;;26.20;;
60354;SDS011;46198;51.464;-0.066;2024-03-08T07:11:49;69.07;;;26.60;;
60354;SDS011;46198;51.464;-0.066;2024-03-08T07:14:23;62.07;;;27.00;;
60354;SDS011;46198;51.464;-0.066;2024-03-08T07:16:51;64.97;;;25.30;;
60354;SDS011;46198;51.464;-0.066;2024-03-08T07:19:20;71.40;;;27.17;;
60354;SDS011;46198;51.464;-0.066;2024-03-08T07:21:48;65.47;;;25.33;;
60354;SDS011;46198;51.464;-0.066;2024-03-08T07:24:17;64.93;;;26.50;;
60354;SDS011;46198;51.464;-0.066;2024-03-08T07:27:06;72.40;;;26.80;;
60354;SDS011;46198;51.464;-0.066;2024-03-08T07:29:35;59.20;;;25.17;;
60354;SDS011;46198;51.464;-0.066;2024-03-08T07:32:03;64.73;;;26.83;;
60354;SDS011;46198;51.464;-0.066;2024-03-08T07:34:47;57.33;;;24.63;;
60354;SDS011;46198;51.464;-0.066;2024-03-08T07:37:17;59.47;;;24.60;;
60354;SDS011;46198;51.464;-0.066;2024-03-08T07:39:47;59.43;;;24.40;;
60354;SDS011;46198;51.464;-0.066;2024-03-08T07:42:16;56.27;;;24.47;;
60354;SDS011;46198;51.464;-0.066;2024-03-08T07:44:46;56.77;;;24.33;;
60354;SDS011;46198;51.464;-0.066;2024-03-08T07:47:17;59.17;;;24.80;;
60354;SDS011;46198;51.464;-0.066;2024-03-08T07:49:49;53.20;;;22.90;;
60354;SDS011;46198;51.464;-0.066;2024-03-08T07:52:18;62.47;;;25.10;;
60354;SDS011;46198;51.464;-0.066;2024-03-08T07:54:47;64.37;;;25.67;;
60354;SDS011;46198;51.464;-0.066;2024-03-08T07:57:16;61.73;;;23.17;;
60354;SDS011;46198;51.464;-0.066;2024-03-08T07:59:46;50.50;;;21.47;;
60354;SDS011;46198;51.464;-0.066;2024-03-08T08:02:14;55.07;;;22.57;;
60354;SDS011;46198;51.464;-0.066;2024-03-08T08:04:42;60.93;;;23.27;;
60354;SDS011;46198;51.464;-0.066;2024-03-08T08:07:11;57.10;;;22.90;;
60354;SDS011;46198;51.464;-0.066;2024-03-08T08:09:41;55.80;;;22.63;;
60354;SDS011;46198;51.464;-0.066;2024-03-08T08:12:09;50.53;;;21.40;;
60354;SDS011;46198;51.464;-0.066;2024-03-08T08:14:38;50.73;;;21.97;;
60354;SDS011;46198;51.464;-0.066;2024-03-08T08:17:09;56.77;;;22.73;;
60354;SDS011;46198;51.464;-0.066;2024-03-08T08:19:40;52.85;;;22.50;;
60354;SDS011;46198;51.464;-0.066;2024-03-08T08:22:10;50.77;;;22.73;;
60354;SDS011;46198;51.464;-0.066;2024-03-08T08:24:38;50.57;;;21.83;;
60354;SDS011;46198;51.464;-0.066;2024-03-08T08:27:06;49.90;;;21.53;;
60354;SDS011;46198;51.464;-0.066;2024-03-08T08:29:35;49.07;;;21.67;;
60354;SDS011;46198;51.464;-0.066;2024-03-08T08:32:04;49.57;;;21.63;;
60354;SDS011;46198;51.464;-0.066;2024-03-08T08:34:35;53.40;;;22.98;;
60354;SDS011;46198;51.464;-0.066;2024-03-08T08:37:04;46.07;;;20.43;;
60354;SDS011;46198;51.464;-0.066;2024-03-08T08:39:32;44.97;;;21.03;;
60354;SDS011;46198;51.464;-0.066;2024-03-08T08:42:00;46.83;;;22.00;;
60354;SDS011;46198;51.464;-0.066;2024-03-08T08:44:29;51.73;;;21.63;;
60354;SDS011;46198;51.464;-0.066;2024-03-08T08:46:58;42.03;;;20.53;;
60354;SDS011;46198;51.464;-0.066;2024-03-08T08:49:39;48.27;;;21.77;;
60354;SDS011;46198;51.464;-0.066;2024-03-08T08:52:07;40.23;;;19.03;;
60354;SDS011;46198;51.464;-0.066;2024-03-08T08:54:42;44.73;;;21.27;;
60354;SDS011;46198;51.464;-0.066;2024-03-08T08:57:15;42.00;;;20.87;;
60354;SDS011;46198;51.464;-0.066;2024-03-08T08:59:44;45.23;;;20.73;;
60354;SDS011;46198;51.464;-0.066;2024-03-08T09:02:12;38.30;;;19.20;;
60354;SDS011;46198;51.464;-0.066;2024-03-08T09:04:45;47.57;;;21.80;;
60354;SDS011;46198;51.464;-0.066;2024-03-08T09:07:14;40.40;;;21.47;;
60354;SDS011;46198;51.464;-0.066;2024-03-08T09:09:44;46.77;;;19.33;;
60354;SDS011;46198;51.464;-0.066;2024-03-08T09:12:12;41.63;;;21.53;;
60354;SDS011;46198;51.464;-0.066;2024-03-08T09:14:40;43.50;;;20.63;;
60354;SDS011;46198;51.464;-0.066;2024-03-08T09:17:08;48.00;;;22.00;;
60354;SDS011;46198;51.464;-0.066;2024-03-08T09:19:37;48.90;;;21.67;;
60354;SDS011;46198;51.464;-0.066;2024-03-08T09:22:07;41.27;;;20.20;;
60354;SDS011;46198;51.464;-0.066;2024-03-08T09:24:37;43.28;;;20.92;;
60354;SDS011;46198;51.464;-0.066;2024-03-08T09:29:58;41.50;;;19.43;;
60354;SDS011;46198;51.464;-0.066;2024-03-08T09:32:28;44.40;;;21.87;;
60354;SDS011;46198;51.464;-0.066;2024-03-08T09:34:56;40.57;;;21.10;;
60354;SDS011;46198;51.464;-0.066;2024-03-08T09:37:26;38.83;;;19.73;;
60354;SDS011;46198;51.464;-0.066;2024-03-08T09:39:54;38.40;;;18.60;;
60354;SDS011;46198;51.464;-0.066;2024-03-08T09:42:22;37.43;;;18.17;;
60354;SDS011;46198;51.464;-0.066;2024-03-08T09:44:52;32.63;;;16.07;;
60354;SDS011;46198;51.464;-0.066;2024-03-08T09:47:20;38.37;;;18.63;;
60354;SDS011;46198;51.464;-0.066;2024-03-08T09:49:56;40.97;;;19.10;;
60354;SDS011;46198;51.464;-0.066;2024-03-08T09:52:25;40.70;;;20.13;;
60354;SDS011;46198;51.464;-0.066;2024-03-08T09:54:56;36.90;;;19.03;;
60354;SDS011;46198;51.464;-0.066;2024-03-08T09:57:24;42.87;;;19.13;;
60354;SDS011;46198;51.464;-0.066;2024-03-08T09:59:53;36.13;;;19.50;;
60354;SDS011;46198;51.464;-0.066;2024-03-08T10:02:21;40.60;;;19.57;;
60354;SDS011;46198;51.464;-0.066;2024-03-08T10:04:50;39.40;;;18.77;;
60354;SDS011;46198;51.464;-0.066;2024-03-08T10:07:20;39.25;;;18.48;;
60354;SDS011;46198;51.464;-0.066;2024-03-08T10:09:49;38.47;;;19.63;;
60354;SDS011;46198;51.464;-0.066;2024-03-08T10:12:20;32.87;;;17.00;;
60354;SDS011;46198;51.464;-0.066;2024-03-08T10:14:48;38.73;;;19.90;;
60354;SDS011;46198;51.464;-0.066;2024-03-08T10:17:17;34.27;;;17.33;;
60354;SDS011;46198;51.464;-0.066;2024-03-08T10:19:50;31.00;;;18.25;;
60354;SDS011;46198;51.464;-0.066;2024-03-08T10:22:20;39.03;;;17.33;;
60354;SDS011;46198;51.464;-0.066;2024-03-08T10:24:50;33.70;;;17.30;;
60354;SDS011;46198;51.464;-0.066;2024-03-08T10:27:18;31.20;;;16.58;;
60354;SDS011;46198;51.464;-0.066;2024-03-08T10:29:47;31.57;;;18.03;;
60354;SDS011;46198;51.464;-0.066;2024-03-08T10:32:17;34.83;;;19.40;;
60354;SDS011;46198;51.464;-0.066;2024-03-08T10:34:45;38.42;;;17.77;;
60354;SDS011;46198;51.464;-0.066;2024-03-08T10:37:15;37.40;;;18.00;;
60354;SDS011;46198;51.464;-0.066;2024-03-08T10:39:52;34.23;;;18.37;;
60354;SDS011;46198;51.464;-0.066;2024-03-08T10:42:38;33.30;;;17.37;;
60354;SDS011;46198;51.464;-0.066;2024-03-08T10:45:11;34.80;;;16.38;;
60354;SDS011;46198;51.464;-0.066;2024-03-08T10:47:43;33.78;;;17.77;;
60354;SDS011;46198;51.464;-0.066;2024-03-08T10:50:17;34.03;;;17.45;;
60354;SDS011;46198;51.464;-0.066;2024-03-08T10:55:18;32.23;;;16.77;;
60354;SDS011;46198;51.464;-0.066;2024-03-08T10:57:47;34.90;;;17.13;;
60354;SDS011;46198;51.464;-0.066;2024-03-08T11:00:16;32.85;;;18.40;;
60354;SDS011;46198;51.464;-0.066;2024-03-08T11:02:53;30.52;;;17.08;;
60354;SDS011;46198;51.464;-0.066;2024-03-08T11:05:31;32.30;;;16.33;;
60354;SDS011;46198;51.464;-0.066;2024-03-08T11:08:16;30.05;;;16.13;;
60354;SDS011;46198;51.464;-0.066;2024-03-08T11:10:48;29.80;;;16.77;;
60354;SDS011;46198;51.464;-0.066;2024-03-08T11:13:34;34.78;;;15.18;;
60354;SDS011;46198;51.464;-0.066;2024-03-08T11:16:05;31.83;;;16.08;;
60354;SDS011;46198;51.464;-0.066;2024-03-08T11:18:36;33.55;;;16.88;;
60354;SDS011;46198;51.464;-0.066;2024-03-08T11:21:07;31.55;;;17.08;;
60354;SDS011;46198;51.464;-0.066;2024-03-08T11:23:39;30.10;;;15.80;;
60354;SDS011;46198;51.464;-0.066;2024-03-08T11:26:18;30.92;;;16.00;;
60354;SDS011;46198;51.464;-0.066;2024-03-08T11:28:47;28.83;;;16.10;;
60354;SDS011;46198;51.464;-0.066;2024-03-08T11:31:22;27.42;;;16.65;;
60354;SDS011;46198;51.464;-0.066;2024-03-08T11:33:51;28.90;;;15.13;;
60354;SDS011;46198;51.464;-0.066;2024-03-08T11:36:20;31.50;;;16.05;;
60354;SDS011;46198;51.464;-0.066;2024-03-08T11:38:50;31.38;;;16.27;;
60354;SDS011;46198;51.464;-0.066;2024-03-08T11:41:21;29.15;;;15.15;;
60354;SDS011;46198;51.464;-0.066;2024-03-08T11:47:35;29.95;;;15.27;;
60354;SDS011;46198;51.464;-0.066;2024-03-08T11:50:06;27.13;;;15.38;;
60354;SDS011;46198;51.464;-0.066;2024-03-08T11:52:37;27.63;;;14.65;;
60354;SDS011;46198;51.464;-0.066;2024-03-08T11:55:07;27.30;;;15.00;;
60354;SDS011;46198;51.464;-0.066;2024-03-08T11:57:37;29.17;;;16.75;;
60354;SDS011;46198;51.464;-0.066;2024-03-08T12:00:05;26.80;;;15.95;;
60354;SDS011;46198;51.464;-0.066;2024-03-08T12:03:00;28.10;;;15.57;;
60354;SDS011;46198;51.464;-0.066;2024-03-08T12:07:58;24.92;;;15.10;;
60354;SDS011;46198;51.464;-0.066;2024-03-08T12:10:26;31.45;;;16.98;;
60354;SDS011;46198;51.464;-0.066;2024-03-08T12:12:58;28.55;;;15.32;;
60354;SDS011;46198;51.464;-0.066;2024-03-08T12:15:27;27.30;;;15.30;;
60354;SDS011;46198;51.464;-0.066;2024-03-08T12:17:59;28.70;;;16.98;;
60354;SDS011;46198;51.464;-0.066;2024-03-08T12:20:28;28.23;;;15.45;;
60354;SDS011;46198;51.464;-0.066;2024-03-08T12:22:58;26.98;;;15.85;;
60354;SDS011;46198;51.464;-0.066;2024-03-08T12:25:29;27.02;;;16.30;;
60354;SDS011;46198;51.464;-0.066;2024-03-08T12:28:08;28.52;;;16.45;;
60354;SDS011;46198;51.464;-0.066;2024-03-08T12:30:44;27.60;;;16.15;;
60354;SDS011;46198;51.464;-0.066;2024-03-08T12:33:14;29.25;;;16.35;;
60354;SDS011;46198;51.464;-0.066;2024-03-08T12:35:50;30.30;;;18.02;;
60354;SDS011;46198;51.464;-0.066;2024-03-08T12:38:21;28.27;;;17.58;;
60354;SDS011;46198;51.464;-0.066;2024-03-08T12:40:55;30.83;;;17.15;;
60354;SDS011;46198;51.464;-0.066;2024-03-08T12:43:25;30.13;;;16.85;;
60354;SDS011;46198;51.464;-0.066;2024-03-08T12:45:58;31.67;;;17.52;;
60354;SDS011;46198;51.464;-0.066;2024-03-08T12:48:26;29.90;;;17.85;;
60354;SDS011;46198;51.464;-0.066;2024-03-08T12:50:55;34.47;;;20.33;;
60354;SDS011;46198;51.464;-0.066;2024-03-08T12:53:23;31.52;;;19.23;;
60354;SDS011;46198;51.464;-0.066;2024-03-08T12:55:52;34.65;;;19.60;;
60354;SDS011;46198;51.464;-0.066;2024-03-08T12:58:23;33.20;;;19.17;;
60354;SDS011;46198;51.464;-0.066;2024-03-08T13:00:54;33.40;;;20.23;;
60354;SDS011;46198;51.464;-0.066;2024-03-08T13:03:22;36.60;;;21.33;;
60354;SDS011;46198;51.464;-0.066;2024-03-08T13:05:50;39.75;;;21.77;;
60354;SDS011;46198;51.464;-0.066;2024-03-08T13:08:19;36.55;;;23.10;;
60354;SDS011;46198;51.464;-0.066;2024-03-08T13:10:48;40.05;;;22.63;;
60354;SDS011;46198;51.464;-0.066;2024-03-08T13:13:18;38.88;;;22.77;;
60354;SDS011;46198;51.464;-0.066;2024-03-08T13:15:46;39.95;;;22.40;;
60354;SDS011;46198;51.464;-0.066;2024-03-08T13:18:17;36.55;;;22.10;;
60354;SDS011;46198;51.464;-0.066;2024-03-08T13:20:45;36.63;;;22.45;;
60354;SDS011;46198;51.464;-0.066;2024-03-08T13:23:16;35.13;;;21.90;;
60354;SDS011;46198;51.464;-0.066;2024-03-08T13:25:44;38.63;;;23.20;;
60354;SDS011;46198;51.464;-0.066;2024-03-08T13:28:14;32.73;;;20.33;;
60354;SDS011;46198;51.464;-0.066;2024-03-08T13:30:43;36.85;;;22.55;;
60354;SDS011;46198;51.464;-0.066;2024-03-08T13:33:12;34.50;;;21.55;;
60354;SDS011;46198;51.464;-0.066;2024-03-08T13:35:43;37.03;;;22.83;;
60354;SDS011;46198;51.464;-0.066;2024-03-08T13:38:17;37.30;;;20.17;;
60354;SDS011;46198;51.464;-0.066;2024-03-08T13:40:46;34.97;;;22.20;;
60354;SDS011;46198;51.464;-0.066;2024-03-08T13:43:16;36.63;;;22.00;;
60354;SDS011;46198;51.464;-0.066;2024-03-08T13:45:44;38.83;;;22.35;;
60354;SDS011;46198;51.464;-0.066;2024-03-08T13:48:13;36.72;;;20.90;;
60354;SDS011;46198;51.464;-0.066;2024-03-08T13:50:44;40.35;;;22.88;;
60354;SDS011;46198;51.464;-0.066;2024-03-08T13:53:12;35.53;;;22.80;;
60354;SDS011;46198;51.464;-0.066;2024-03-08T13:55:41;43.42;;;22.85;;
60354;SDS011;46198;51.464;-0.066;2024-03-08T13:58:10;38.70;;;22.23;;
60354;SDS011;46198;51.464;-0.066;2024-03-08T14:00:40;40.58;;;22.05;;
60354;SDS011;46198;51.464;-0.066;2024-03-08T14:03:10;39.40;;;22.47;;
60354;SDS011;46198;51.464;-0.066;2024-03-08T14:05:39;40.63;;;22.08;;
60354;SDS011;46198;51.464;-0.066;2024-03-08T14:08:09;37.33;;;22.30;;
60354;SDS011;46198;51.464;-0.066;2024-03-08T14:10:39;37.85;;;23.15;;
60354;SDS011;46198;51.464;-0.066;2024-03-08T14:13:09;37.55;;;21.67;;
60354;SDS011;46198;51.464;-0.066;2024-03-08T14:15:38;37.15;;;21.67;;
60354;SDS011;46198;51.464;-0.066;2024-03-08T14:18:09;35.35;;;22.23;;
60354;SDS011;46198;51.464;-0.066;2024-03-08T14:20:40;37.17;;;21.85;;
60354;SDS011;46198;51.464;-0.066;2024-03-08T14:26:29;36.92;;;21.95;;
60354;SDS011;46198;51.464;-0.066;2024-03-08T14:28:57;39.28;;;22.13;;
60354;SDS011;46198;51.464;-0.066;2024-03-08T14:31:25;38.53;;;23.02;;
60354;SDS011;46198;51.464;-0.066;2024-03-08T14:33:54;35.75;;;21.35;;
60354;SDS011;46198;51.464;-0.066;2024-03-08T14:36:24;37.70;;;22.02;;
60354;SDS011;46198;51.464;-0.066;2024-03-08T14:38:53;37.28;;;20.77;;
60354;SDS011;46198;51.464;-0.066;2024-03-08T14:41:21;39.83;;;23.20;;